Time;durP1;ratioP1;P1;durP2;ratioP2;P2;SDS_P1;SDS_P2;PMS_P1;PMS_P2;Temp;Humidity;BMP_temperature;BMP_pressure;BME280_temperature;BME280_humidity;BME280_pressure;Samples;Min_cycle;Max_cycle;Signal;HPM_P1;HPM_P2
2021/12/29 00:01:51;;;;;;;29.55;9.63;;;7.20;99.90;;;;;;5096309;28;20047;-75
2021/12/29 00:04:17;;;;;;;26.17;8.73;;;7.20;99.90;;;;;;5100719;28;20044;-76
2021/12/29 00:06:44;;;;;;;27.58;8.52;;;7.20;99.90;;;;;;5092300;28;20102;-72
2021/12/29 00:09:10;;;;;;;31.52;8.82;;;7.20;99.90;;;;;;5099916;28;20040;-77
2021/12/29 00:11:38;;;;;;;27.27;7.80;;;7.20;99.90;;;;;;5112750;28;20047;-76
2021/12/29 00:14:05;;;;;;;21.30;7.50;;;7.10;99.90;;;;;;5099928;28;20231;-76
2021/12/29 00:16:34;;;;;;;26.77;8.65;;;7.10;99.90;;;;;;5091442;28;20044;-76
2021/12/29 00:19:02;;;;;;;25.77;8.65;;;7.20;99.90;;;;;;5091994;28;20123;-75
2021/12/29 00:21:29;;;;;;;23.60;8.32;;;7.20;99.90;;;;;;5091461;28;20052;-76
2021/12/29 00:23:58;;;;;;;24.42;8.57;;;7.10;99.90;;;;;;5102018;28;20048;-75
2021/12/29 00:26:29;;;;;;;23.23;9.63;;;7.10;99.90;;;;;;5096199;28;20040;-76
2021/12/29 00:28:58;;;;;;;24.55;8.30;;;7.10;99.90;;;;;;5091801;28;20276;-76
2021/12/29 00:31:25;;;;;;;29.92;9.20;;;7.10;99.90;;;;;;5094120;28;20048;-75
2021/12/29 00:33:51;;;;;;;23.83;8.90;;;7.10;99.90;;;;;;5102664;28;20512;-75
2021/12/29 00:36:17;;;;;;;22.50;8.98;;;7.00;99.90;;;;;;5090964;28;20048;-75
2021/12/29 00:38:45;;;;;;;17.73;8.25;;;7.00;99.90;;;;;;5092171;28;20040;-76
2021/12/29 00:41:11;;;;;;;19.23;7.45;;;7.00;99.90;;;;;;5091626;28;20056;-75
2021/12/29 00:43:37;;;;;;;18.50;7.60;;;7.00;99.90;;;;;;5113538;28;20044;-76
2021/12/29 00:46:04;;;;;;;18.45;7.38;;;7.00;99.90;;;;;;5115636;28;20047;-75
2021/12/29 00:48:36;;;;;;;17.65;6.68;;;7.00;99.90;;;;;;5098535;27;20404;-75
2021/12/29 00:51:03;;;;;;;17.27;7.30;;;6.90;99.90;;;;;;5094991;28;20509;-75
2021/12/29 00:53:29;;;;;;;16.70;7.00;;;7.00;99.90;;;;;;5095875;28;20048;-74
2021/12/29 00:55:55;;;;;;;18.52;7.72;;;6.90;99.90;;;;;;5114647;28;20050;-76
2021/12/29 00:58:20;;;;;;;21.27;7.40;;;7.00;99.90;;;;;;5099937;28;20050;-75
2021/12/29 01:00:46;;;;;;;21.10;7.20;;;7.00;99.90;;;;;;5095606;28;20055;-76
2021/12/29 01:03:12;;;;;;;24.17;7.53;;;7.00;99.90;;;;;;5100752;28;20162;-76
2021/12/29 01:05:38;;;;;;;24.38;7.82;;;7.00;99.90;;;;;;5100688;28;20040;-76
2021/12/29 01:08:05;;;;;;;23.10;7.93;;;7.00;99.90;;;;;;5094504;28;20087;-76
2021/12/29 01:10:31;;;;;;;26.60;8.50;;;7.00;99.90;;;;;;5094556;28;20481;-76
2021/12/29 01:12:59;;;;;;;25.83;8.60;;;7.00;99.90;;;;;;5101243;28;20041;-75
2021/12/29 01:15:34;;;;;;;28.35;8.55;;;7.00;99.90;;;;;;5105270;28;20051;-76
2021/12/29 01:18:05;;;;;;;28.33;9.05;;;7.00;99.90;;;;;;5100950;28;20095;-75
2021/12/29 01:20:32;;;;;;;35.35;10.05;;;7.00;99.90;;;;;;5115713;27;20048;-76
2021/12/29 01:22:59;;;;;;;31.88;10.45;;;7.00;99.90;;;;;;5099290;28;20043;-75
2021/12/29 01:25:26;;;;;;;33.53;9.65;;;7.00;99.90;;;;;;5101900;28;20122;-76
2021/12/29 01:27:52;;;;;;;41.50;9.73;;;7.00;99.90;;;;;;5111880;28;20051;-76
2021/12/29 01:30:19;;;;;;;39.63;10.55;;;7.00;99.90;;;;;;5113690;28;20134;-76
2021/12/29 01:32:45;;;;;;;40.05;10.20;;;7.00;99.90;;;;;;5108356;27;20044;-76
2021/12/29 01:35:12;;;;;;;40.88;9.80;;;7.00;99.90;;;;;;5096109;28;20056;-76
2021/12/29 01:37:38;;;;;;;40.15;11.02;;;7.10;99.90;;;;;;5105622;28;20055;-76
2021/12/29 01:40:07;;;;;;;43.42;9.82;;;7.10;99.90;;;;;;5093902;28;20606;-76
2021/12/29 01:42:33;;;;;;;42.85;10.35;;;7.10;99.90;;;;;;5097823;28;20137;-76
2021/12/29 01:44:59;;;;;;;43.03;10.07;;;7.10;99.90;;;;;;5114444;28;20069;-73
2021/12/29 01:47:27;;;;;;;39.13;9.55;;;7.10;99.90;;;;;;5094859;28;20075;-76
2021/12/29 01:49:53;;;;;;;41.92;9.55;;;7.10;99.90;;;;;;5094727;28;20044;-76
2021/12/29 01:52:23;;;;;;;42.97;9.98;;;7.10;99.90;;;;;;5110087;28;20648;-74
2021/12/29 01:54:49;;;;;;;49.20;10.73;;;7.10;99.90;;;;;;5093293;28;20442;-76
2021/12/29 01:57:16;;;;;;;52.08;11.60;;;7.20;99.90;;;;;;5095241;28;20123;-76
2021/12/29 01:59:41;;;;;;;44.83;10.90;;;7.20;99.90;;;;;;5094401;28;20067;-76
2021/12/29 02:02:08;;;;;;;51.53;11.50;;;7.20;99.90;;;;;;5093863;28;20493;-75
2021/12/29 02:04:34;;;;;;;56.45;12.35;;;7.20;99.90;;;;;;5094148;28;20085;-76
2021/12/29 02:07:00;;;;;;;62.28;12.40;;;7.20;99.90;;;;;;5106889;28;20058;-72
2021/12/29 02:09:26;;;;;;;63.95;13.23;;;7.10;99.90;;;;;;5097344;28;20118;-76
2021/12/29 02:11:52;;;;;;;58.75;12.55;;;7.20;99.90;;;;;;5100079;28;20039;-76
2021/12/29 02:14:18;;;;;;;64.07;13.18;;;7.20;99.90;;;;;;5092533;28;20093;-75
2021/12/29 02:16:44;;;;;;;52.40;11.88;;;7.20;99.90;;;;;;5094347;28;20523;-75
2021/12/29 02:19:12;;;;;;;56.13;12.13;;;7.20;99.90;;;;;;5093392;28;20051;-76
2021/12/29 02:21:42;;;;;;;54.95;10.40;;;7.20;99.90;;;;;;5094056;28;20040;-76
2021/12/29 02:26:37;;;;;;;48.80;10.52;;;7.20;99.90;;;;;;5101755;28;20505;-76
2021/12/29 02:29:06;;;;;;;44.25;10.82;;;7.20;99.90;;;;;;5110742;28;20134;-72
2021/12/29 02:31:32;;;;;;;43.22;10.68;;;7.30;99.90;;;;;;5100481;28;20051;-76
2021/12/29 02:33:58;;;;;;;44.65;10.68;;;7.30;99.90;;;;;;5104874;28;20040;-76
2021/12/29 02:36:27;;;;;;;40.40;10.50;;;7.30;99.90;;;;;;5109922;28;20515;-76
2021/12/29 02:38:55;;;;;;;41.05;10.38;;;7.30;99.90;;;;;;5107432;28;20123;-76
2021/12/29 02:41:23;;;;;;;40.17;10.82;;;7.30;99.90;;;;;;5102734;28;20051;-75
2021/12/29 02:43:57;;;;;;;40.20;10.57;;;7.30;99.90;;;;;;5093526;28;20052;-76
2021/12/29 02:46:24;;;;;;;42.85;10.95;;;7.30;99.90;;;;;;5112167;28;20039;-76
2021/12/29 02:48:59;;;;;;;36.92;10.73;;;7.30;99.90;;;;;;5112575;28;20078;-75
2021/12/29 02:51:26;;;;;;;38.08;11.18;;;7.30;99.90;;;;;;5112208;28;20108;-77
2021/12/29 02:53:52;;;;;;;41.80;11.10;;;7.30;99.90;;;;;;5113817;28;20052;-76
2021/12/29 02:56:18;;;;;;;42.30;11.63;;;7.30;99.90;;;;;;5094817;28;20048;-76
2021/12/29 02:58:44;;;;;;;39.38;10.45;;;7.40;99.90;;;;;;5093313;28;20089;-76
2021/12/29 03:01:13;;;;;;;36.58;11.13;;;7.40;99.90;;;;;;5093605;28;20126;-76
2021/12/29 03:03:39;;;;;;;33.55;10.88;;;7.40;99.90;;;;;;5101452;28;20043;-77
2021/12/29 03:06:06;;;;;;;35.08;11.02;;;7.40;99.90;;;;;;5095397;28;20040;-74
2021/12/29 03:08:33;;;;;;;38.47;11.95;;;7.40;99.90;;;;;;5092929;28;20102;-82
2021/12/29 03:10:59;;;;;;;38.03;12.63;;;7.50;99.90;;;;;;5093079;28;20044;-76
2021/12/29 03:13:27;;;;;;;38.10;12.40;;;7.50;99.90;;;;;;5092445;28;20055;-76
2021/12/29 03:15:53;;;;;;;44.72;12.90;;;7.50;99.90;;;;;;5093211;28;20036;-82
2021/12/29 03:18:19;;;;;;;45.33;14.13;;;7.50;99.90;;;;;;5092020;28;20048;-76
2021/12/29 03:20:45;;;;;;;49.10;15.77;;;7.50;99.90;;;;;;5096358;28;20047;-77
2021/12/29 03:23:12;;;;;;;48.75;15.90;;;7.50;99.90;;;;;;5091793;28;20052;-76
2021/12/29 03:25:38;;;;;;;52.42;18.35;;;7.60;99.90;;;;;;5093892;28;20187;-76
2021/12/29 03:28:04;;;;;;;55.85;19.80;;;7.60;99.90;;;;;;5097176;28;20114;-76
2021/12/29 03:30:35;;;;;;;63.25;19.92;;;7.60;99.90;;;;;;5089309;28;20056;-77
2021/12/29 03:33:04;;;;;;;63.58;20.92;;;7.60;99.90;;;;;;5093969;28;20176;-77
2021/12/29 03:35:36;;;;;;;66.22;21.50;;;7.70;99.90;;;;;;5092120;28;20120;-76
2021/12/29 03:38:03;;;;;;;65.95;21.15;;;7.60;99.90;;;;;;5112591;28;20044;-77
2021/12/29 03:40:29;;;;;;;67.30;20.70;;;7.70;99.90;;;;;;5112503;28;20044;-76
2021/12/29 03:42:56;;;;;;;62.35;22.15;;;7.70;99.90;;;;;;5093141;28;20043;-77
2021/12/29 03:45:22;;;;;;;66.35;22.25;;;7.70;99.90;;;;;;5093127;28;20043;-75
2021/12/29 03:47:48;;;;;;;65.60;22.25;;;7.70;99.90;;;;;;5111481;28;20494;-76
2021/12/29 03:50:14;;;;;;;71.57;23.05;;;7.70;99.90;;;;;;5104357;28;20036;-74
2021/12/29 03:52:40;;;;;;;75.35;24.13;;;7.80;99.90;;;;;;5098397;28;20048;-76
2021/12/29 03:55:07;;;;;;;62.28;21.60;;;7.80;99.90;;;;;;5092173;28;20036;-76
2021/12/29 03:57:33;;;;;;;67.95;23.73;;;7.80;99.90;;;;;;5091985;28;20055;-76
2021/12/29 03:59:59;;;;;;;66.80;21.98;;;7.80;99.90;;;;;;5092527;28;20091;-76
2021/12/29 04:02:25;;;;;;;69.15;22.95;;;7.80;99.90;;;;;;5091934;28;20079;-76
2021/12/29 04:04:51;;;;;;;63.40;21.67;;;7.80;99.90;;;;;;5092085;28;20524;-77
2021/12/29 04:07:16;;;;;;;68.93;21.20;;;7.80;99.90;;;;;;5091894;28;20084;-75
2021/12/29 04:09:42;;;;;;;54.72;19.40;;;7.80;99.90;;;;;;5092528;28;20477;-76
2021/12/29 04:12:08;;;;;;;55.42;18.90;;;7.80;99.90;;;;;;5092696;28;20126;-76
2021/12/29 04:14:34;;;;;;;50.70;19.38;;;7.80;99.90;;;;;;5091538;28;20121;-76
2021/12/29 04:17:08;;;;;;;50.25;18.70;;;7.80;99.90;;;;;;5093798;28;20040;-76
2021/12/29 04:22:20;;;;;;;51.17;18.50;;;7.80;99.90;;;;;;5095887;28;20099;-75
2021/12/29 04:24:46;;;;;;;56.80;19.52;;;7.80;99.90;;;;;;5096245;28;20079;-76
2021/12/29 04:27:11;;;;;;;50.30;19.23;;;7.80;99.90;;;;;;5096178;28;20048;-76
2021/12/29 04:29:37;;;;;;;45.13;17.90;;;7.80;99.90;;;;;;5095328;28;20043;-76
2021/12/29 04:32:03;;;;;;;41.55;17.50;;;7.80;99.90;;;;;;5095826;28;20044;-76
2021/12/29 04:34:29;;;;;;;45.05;18.05;;;7.80;99.90;;;;;;5095461;28;20131;-75
2021/12/29 04:36:55;;;;;;;42.90;18.50;;;7.80;99.90;;;;;;5096111;28;20091;-76
2021/12/29 04:39:20;;;;;;;40.20;17.65;;;7.80;99.90;;;;;;5095526;28;20192;-75
2021/12/29 04:41:46;;;;;;;49.50;17.80;;;7.80;99.90;;;;;;5096003;28;20532;-76
2021/12/29 04:44:12;;;;;;;45.00;18.05;;;7.70;99.90;;;;;;5095927;28;20050;-76
2021/12/29 04:46:40;;;;;;;49.95;17.08;;;7.80;99.90;;;;;;5093757;28;20040;-76
2021/12/29 04:49:09;;;;;;;42.72;18.45;;;7.80;99.90;;;;;;5095760;28;20131;-76
2021/12/29 04:51:36;;;;;;;40.83;17.80;;;7.80;99.90;;;;;;5095264;28;20071;-76
2021/12/29 04:54:07;;;;;;;51.92;20.05;;;7.80;99.90;;;;;;5095793;28;20051;-76
2021/12/29 04:56:33;;;;;;;49.05;20.48;;;7.80;99.90;;;;;;5094753;28;20561;-76
2021/12/29 04:58:58;;;;;;;51.85;21.23;;;7.80;99.90;;;;;;5095408;28;20063;-76
2021/12/29 05:01:24;;;;;;;51.50;22.00;;;7.80;99.90;;;;;;5095200;28;20056;-75
2021/12/29 05:03:50;;;;;;;56.25;22.20;;;7.80;99.90;;;;;;5095733;28;20044;-76
2021/12/29 05:09:00;;;;;;;61.20;23.05;;;7.70;99.90;;;;;;5095626;28;20447;-76
2021/12/29 05:11:26;;;;;;;50.97;21.23;;;7.70;99.90;;;;;;5094821;28;20047;-75
2021/12/29 05:13:52;;;;;;;51.75;21.73;;;7.70;99.90;;;;;;5095392;28;20051;-76
2021/12/29 05:16:18;;;;;;;51.45;21.75;;;7.70;99.90;;;;;;5095340;28;20040;-76
2021/12/29 05:18:45;;;;;;;53.85;21.30;;;7.70;99.90;;;;;;5094317;28;20123;-76
2021/12/29 05:21:11;;;;;;;52.60;21.48;;;7.70;99.90;;;;;;5095393;28;20048;-76
2021/12/29 05:23:37;;;;;;;48.42;21.42;;;7.70;99.90;;;;;;5094597;28;20077;-76
2021/12/29 05:26:04;;;;;;;54.28;21.77;;;7.70;99.90;;;;;;5095148;28;20077;-76
2021/12/29 05:28:29;;;;;;;52.60;21.17;;;7.70;99.90;;;;;;5093363;28;20052;-76
2021/12/29 05:30:55;;;;;;;55.53;22.30;;;7.70;99.90;;;;;;5094998;28;20047;-76
2021/12/29 05:33:22;;;;;;;58.45;22.45;;;7.70;99.90;;;;;;5094980;28;20044;-76
2021/12/29 05:35:48;;;;;;;55.92;22.75;;;7.70;99.90;;;;;;5094376;28;20050;-76
2021/12/29 05:38:13;;;;;;;61.28;22.90;;;7.70;99.90;;;;;;5094519;28;20114;-76
2021/12/29 05:40:39;;;;;;;65.95;24.10;;;7.70;99.90;;;;;;5094315;28;20493;-76
2021/12/29 05:43:05;;;;;;;60.00;23.50;;;7.70;99.90;;;;;;5094515;28;20424;-76
2021/12/29 05:45:31;;;;;;;61.75;22.38;;;7.70;99.90;;;;;;5094117;28;20040;-76
2021/12/29 05:47:57;;;;;;;66.68;24.33;;;7.70;99.90;;;;;;5094952;28;20044;-76
2021/12/29 05:50:27;;;;;;;64.55;23.15;;;7.70;99.90;;;;;;5094405;28;20044;-76
2021/12/29 05:52:54;;;;;;;65.22;22.88;;;7.70;99.90;;;;;;5094323;28;20040;-77
2021/12/29 05:55:20;;;;;;;65.57;23.67;;;7.70;99.90;;;;;;5094713;28;20389;-76
2021/12/29 05:57:46;;;;;;;52.08;20.80;;;7.70;99.90;;;;;;5093970;28;20044;-75
2021/12/29 06:00:15;;;;;;;57.35;20.58;;;7.80;99.90;;;;;;5093614;28;20067;-76
2021/12/29 06:02:41;;;;;;;51.95;20.30;;;7.70;99.90;;;;;;5093329;28;20051;-76
2021/12/29 06:05:07;;;;;;;54.88;20.92;;;7.80;99.90;;;;;;5094245;28;20047;-76
2021/12/29 06:07:34;;;;;;;50.58;20.02;;;7.80;99.90;;;;;;5093725;28;20040;-75
2021/12/29 06:10:00;;;;;;;50.22;19.55;;;7.80;99.90;;;;;;5094255;28;20054;-76
2021/12/29 06:12:26;;;;;;;50.78;18.88;;;7.80;99.90;;;;;;5093992;28;20244;-76
2021/12/29 06:14:52;;;;;;;46.90;18.42;;;7.80;99.90;;;;;;5093642;28;20147;-76
2021/12/29 06:17:18;;;;;;;44.55;17.70;;;7.80;99.90;;;;;;5094106;28;20110;-76
2021/12/29 06:19:44;;;;;;;39.72;17.48;;;7.80;99.90;;;;;;5093543;28;20052;-76
2021/12/29 06:22:10;;;;;;;40.75;16.83;;;7.80;99.90;;;;;;5094055;28;20465;-76
2021/12/29 06:24:38;;;;;;;39.97;16.92;;;7.80;99.90;;;;;;5093633;28;20052;-76
2021/12/29 06:27:05;;;;;;;41.15;16.98;;;7.80;99.90;;;;;;5093697;28;20101;-76
2021/12/29 06:29:30;;;;;;;37.53;16.23;;;7.80;99.90;;;;;;5093902;28;20051;-76
2021/12/29 06:31:56;;;;;;;40.22;15.65;;;7.80;99.90;;;;;;5093275;28;20093;-76
2021/12/29 06:34:22;;;;;;;38.30;16.73;;;7.80;99.90;;;;;;5093805;28;20050;-76
2021/12/29 06:36:48;;;;;;;34.05;16.40;;;7.80;99.90;;;;;;5092024;28;20041;-76
2021/12/29 06:39:13;;;;;;;39.05;16.05;;;7.80;99.90;;;;;;5093703;28;20071;-76
2021/12/29 06:41:40;;;;;;;44.38;16.50;;;7.80;99.90;;;;;;5092770;28;20047;-76
2021/12/29 06:44:06;;;;;;;41.10;16.30;;;7.80;99.90;;;;;;5093651;28;20127;-76
2021/12/29 06:46:32;;;;;;;42.92;15.48;;;7.80;99.90;;;;;;5093491;28;20075;-76
2021/12/29 06:48:58;;;;;;;40.72;15.63;;;7.80;99.90;;;;;;5092993;28;20082;-76
2021/12/29 06:51:23;;;;;;;40.97;16.23;;;7.90;99.90;;;;;;5093524;28;20040;-76
2021/12/29 06:53:49;;;;;;;40.45;15.55;;;7.80;99.90;;;;;;5092945;28;20100;-76
2021/12/29 06:56:15;;;;;;;45.65;15.90;;;7.80;99.90;;;;;;5093619;28;20052;-76
2021/12/29 06:58:41;;;;;;;39.80;15.20;;;7.80;99.90;;;;;;5091918;28;20043;-76
2021/12/29 07:01:06;;;;;;;44.85;15.13;;;7.80;99.90;;;;;;5093420;28;20060;-77
2021/12/29 07:03:32;;;;;;;43.55;16.08;;;7.80;99.90;;;;;;5093348;28;20044;-76
2021/12/29 07:05:59;;;;;;;44.25;16.65;;;7.80;99.90;;;;;;5092609;28;20507;-76
2021/12/29 07:08:25;;;;;;;50.15;17.60;;;7.80;99.90;;;;;;5092912;28;20108;-76
2021/12/29 07:10:50;;;;;;;50.08;17.00;;;7.80;99.90;;;;;;5092597;28;20400;-76
2021/12/29 07:13:16;;;;;;;53.38;19.08;;;7.80;99.90;;;;;;5092802;28;20044;-76
2021/12/29 07:15:42;;;;;;;56.33;18.15;;;7.80;99.90;;;;;;5092493;28;20039;-75
2021/12/29 07:18:08;;;;;;;55.28;18.40;;;7.80;99.90;;;;;;5092719;28;20044;-76
2021/12/29 07:20:34;;;;;;;53.47;17.83;;;7.80;99.90;;;;;;5093099;28;20083;-76
2021/12/29 07:22:59;;;;;;;56.47;18.45;;;7.80;99.90;;;;;;5092447;28;20048;-76
2021/12/29 07:25:29;;;;;;;52.85;18.17;;;7.80;99.90;;;;;;5093119;28;20050;-77
2021/12/29 07:27:55;;;;;;;62.15;18.63;;;7.80;99.90;;;;;;5091896;28;20094;-75
2021/12/29 07:30:21;;;;;;;54.55;19.42;;;7.80;99.90;;;;;;5092662;28;20432;-76
2021/12/29 07:32:47;;;;;;;55.40;17.95;;;7.80;99.90;;;;;;5092678;28;20400;-76
2021/12/29 07:35:13;;;;;;;61.38;18.05;;;7.80;99.90;;;;;;5093303;28;20119;-76
2021/12/29 07:37:38;;;;;;;58.88;18.45;;;7.80;99.90;;;;;;5091789;28;20048;-76
2021/12/29 07:40:07;;;;;;;66.30;18.35;;;7.90;99.90;;;;;;5092334;28;20079;-76
2021/12/29 07:42:34;;;;;;;56.58;17.83;;;7.90;99.90;;;;;;5092633;28;20084;-76
2021/12/29 07:45:00;;;;;;;52.30;16.95;;;7.90;99.90;;;;;;5092475;28;20052;-76
2021/12/29 07:47:26;;;;;;;59.20;18.05;;;7.80;99.90;;;;;;5092897;28;20044;-77
2021/12/29 07:49:51;;;;;;;57.47;18.17;;;7.90;99.90;;;;;;5092520;28;20125;-76
2021/12/29 07:52:17;;;;;;;55.67;17.65;;;7.90;99.90;;;;;;5097394;28;20040;-76
2021/12/29 07:54:43;;;;;;;57.58;17.20;;;7.90;99.90;;;;;;5099053;28;20047;-70
2021/12/29 07:57:08;;;;;;;63.25;18.60;;;7.90;99.90;;;;;;5099919;28;20385;-76
2021/12/29 07:59:34;;;;;;;60.80;18.52;;;7.90;99.90;;;;;;5099262;28;20056;-76
2021/12/29 08:02:01;;;;;;;57.83;18.92;;;7.90;99.90;;;;;;5099189;28;20172;-76
2021/12/29 08:04:27;;;;;;;61.05;18.55;;;7.90;99.90;;;;;;5099436;28;20056;-76
2021/12/29 08:06:53;;;;;;;59.15;18.88;;;7.90;99.90;;;;;;5098974;28;20136;-76
2021/12/29 08:09:18;;;;;;;62.47;18.52;;;7.90;99.90;;;;;;5099148;28;20084;-76
2021/12/29 08:11:45;;;;;;;66.28;18.17;;;7.90;99.90;;;;;;5099591;28;20044;-76
2021/12/29 08:14:11;;;;;;;64.20;19.00;;;8.00;99.90;;;;;;5099577;28;20140;-76
2021/12/29 08:16:36;;;;;;;60.65;17.30;;;8.00;99.90;;;;;;5099486;28;20476;-76
2021/12/29 08:19:04;;;;;;;64.78;18.10;;;7.90;99.90;;;;;;5098736;28;20087;-76
2021/12/29 08:21:30;;;;;;;60.10;19.35;;;8.00;99.90;;;;;;5099658;28;20464;-76
2021/12/29 08:23:56;;;;;;;54.85;18.35;;;8.00;99.90;;;;;;5099010;28;20090;-76
2021/12/29 08:26:22;;;;;;;62.50;18.58;;;8.00;99.90;;;;;;5099349;28;20035;-76
2021/12/29 08:28:50;;;;;;;49.65;17.17;;;8.00;99.90;;;;;;5098923;28;20498;-75
2021/12/29 08:31:16;;;;;;;57.83;17.77;;;8.00;99.90;;;;;;5099170;28;20101;-76
2021/12/29 08:33:42;;;;;;;49.00;17.02;;;8.00;99.90;;;;;;5098668;28;20488;-76
2021/12/29 08:36:08;;;;;;;45.90;15.88;;;8.00;99.90;;;;;;5098848;28;20618;-76
2021/12/29 08:38:35;;;;;;;42.15;15.50;;;8.10;99.90;;;;;;5099267;28;20040;-76
2021/12/29 08:41:01;;;;;;;45.92;15.98;;;8.10;99.90;;;;;;5098798;28;20044;-76
2021/12/29 08:43:26;;;;;;;43.65;16.85;;;8.10;99.90;;;;;;5098756;28;20396;-76
2021/12/29 08:45:52;;;;;;;40.30;16.63;;;8.10;99.90;;;;;;5098723;28;20047;-76
2021/12/29 08:48:18;;;;;;;40.08;16.73;;;8.20;99.90;;;;;;5099251;28;20125;-76
2021/12/29 08:50:44;;;;;;;39.92;15.68;;;8.10;99.90;;;;;;5099266;28;20044;-76
2021/12/29 08:53:11;;;;;;;39.08;15.57;;;8.10;99.90;;;;;;5098521;28;20772;-75
2021/12/29 08:55:39;;;;;;;32.17;14.02;;;8.20;99.90;;;;;;5098908;28;20097;-76
2021/12/29 08:58:06;;;;;;;30.13;13.45;;;8.20;99.90;;;;;;5098677;28;20036;-76
2021/12/29 09:00:34;;;;;;;31.58;12.43;;;8.20;99.90;;;;;;5098981;28;20056;-76
2021/12/29 09:03:00;;;;;;;30.27;13.02;;;8.20;99.90;;;;;;5096143;28;20044;-76
2021/12/29 09:05:26;;;;;;;27.00;11.82;;;8.30;99.90;;;;;;5095246;28;20043;-76
2021/12/29 09:07:52;;;;;;;29.58;12.00;;;8.30;99.90;;;;;;5095550;28;20432;-71
2021/12/29 09:10:20;;;;;;;30.75;12.32;;;8.20;99.90;;;;;;5095720;28;20040;-76
2021/12/29 09:12:51;;;;;;;30.70;12.27;;;8.30;99.90;;;;;;5095691;28;20161;-77
2021/12/29 09:15:19;;;;;;;28.90;12.25;;;8.30;99.90;;;;;;5094969;28;20036;-76
2021/12/29 09:17:45;;;;;;;27.88;12.55;;;8.30;99.90;;;;;;5095625;28;20055;-76
2021/12/29 09:20:16;;;;;;;32.88;12.82;;;8.30;99.90;;;;;;5095160;28;20047;-76
2021/12/29 09:22:42;;;;;;;35.85;13.38;;;8.30;99.90;;;;;;5095727;28;20036;-76
2021/12/29 09:25:09;;;;;;;40.55;14.32;;;8.40;99.90;;;;;;5095017;28;20048;-76
2021/12/29 09:27:35;;;;;;;44.95;14.70;;;8.40;99.90;;;;;;5095452;28;20048;-76
2021/12/29 09:30:01;;;;;;;43.78;15.15;;;8.40;99.90;;;;;;5094572;28;20058;-75
2021/12/29 09:32:31;;;;;;;43.58;15.45;;;8.40;99.90;;;;;;5095294;28;20048;-77
2021/12/29 09:34:59;;;;;;;42.25;16.40;;;8.50;99.90;;;;;;5094871;28;20494;-74
2021/12/29 09:37:26;;;;;;;43.28;15.27;;;8.40;99.90;;;;;;5095339;28;20048;-76
2021/12/29 09:39:52;;;;;;;40.25;14.95;;;8.50;99.90;;;;;;5095171;28;20122;-76
2021/12/29 09:42:18;;;;;;;37.35;15.13;;;8.50;99.90;;;;;;5094360;28;20040;-76
2021/12/29 09:44:45;;;;;;;42.75;15.50;;;8.50;99.90;;;;;;5095097;28;20051;-77
2021/12/29 09:47:11;;;;;;;37.55;16.02;;;8.50;99.90;;;;;;5094619;28;20049;-76
2021/12/29 09:49:37;;;;;;;38.13;15.07;;;8.50;99.90;;;;;;5094925;28;20131;-76
2021/12/29 09:52:04;;;;;;;38.95;15.40;;;8.50;99.90;;;;;;5093857;28;20500;-76
2021/12/29 09:54:31;;;;;;;40.42;15.60;;;8.60;99.90;;;;;;5094928;28;20036;-77
2021/12/29 09:56:57;;;;;;;38.50;14.85;;;8.60;99.90;;;;;;5094861;28;20059;-76
2021/12/29 09:59:23;;;;;;;46.03;16.20;;;8.60;99.90;;;;;;5094044;28;20060;-77
2021/12/29 10:01:50;;;;;;;39.03;14.57;;;8.60;99.90;;;;;;5094753;28;20047;-76
2021/12/29 10:04:16;;;;;;;53.60;16.13;;;8.60;99.90;;;;;;5094234;28;20050;-75
2021/12/29 10:06:42;;;;;;;46.40;16.08;;;8.60;99.90;;;;;;5094315;28;20039;-76
2021/12/29 10:09:16;;;;;;;50.47;16.50;;;8.60;99.90;;;;;;5094166;28;20400;-75
2021/12/29 10:11:43;;;;;;;46.08;15.45;;;8.60;99.90;;;;;;5094567;28;20085;-76
2021/12/29 10:14:11;;;;;;;49.60;16.73;;;8.60;99.90;;;;;;5093388;28;20036;-75
2021/12/29 10:16:38;;;;;;;46.78;16.88;;;8.60;99.90;;;;;;5094489;28;20032;-76
2021/12/29 10:19:13;;;;;;;39.30;15.00;;;8.60;99.90;;;;;;5093971;28;20488;-75
2021/12/29 10:21:45;;;;;;;39.97;16.55;;;8.60;99.90;;;;;;5094101;28;20127;-76
2021/12/29 10:24:11;;;;;;;40.40;16.30;;;8.70;99.90;;;;;;5084811;28;20571;-75
2021/12/29 10:26:43;;;;;;;35.58;15.27;;;8.70;99.90;;;;;;5094273;28;20087;-76
2021/12/29 10:29:15;;;;;;;32.78;14.55;;;8.70;99.90;;;;;;5093382;28;20476;-75
2021/12/29 10:31:44;;;;;;;32.33;15.32;;;8.70;99.90;;;;;;5094191;28;20044;-76
2021/12/29 10:34:17;;;;;;;31.90;13.48;;;8.70;99.90;;;;;;5093776;28;20090;-76
2021/12/29 10:36:46;;;;;;;26.98;14.00;;;8.70;99.90;;;;;;5094187;28;20070;-76
2021/12/29 10:39:19;;;;;;;25.10;13.68;;;8.70;99.90;;;;;;5093261;28;20076;-75
2021/12/29 10:41:55;;;;;;;23.63;13.02;;;8.80;99.90;;;;;;5094311;28;20096;-76
2021/12/29 10:44:37;;;;;;;22.80;13.30;;;8.70;99.90;;;;;;5093464;28;20040;-75
2021/12/29 10:47:23;;;;;;;25.63;13.38;;;8.80;99.90;;;;;;5093982;28;20043;-76
2021/12/29 10:49:56;;;;;;;23.35;12.38;;;8.80;99.90;;;;;;5094427;28;20054;-76
2021/12/29 10:52:46;;;;;;;23.08;12.77;;;8.80;99.90;;;;;;5093425;28;20048;-75
2021/12/29 10:55:17;;;;;;;23.05;12.45;;;8.80;99.90;;;;;;5073236;28;20081;-75
2021/12/29 10:57:44;;;;;;;21.17;12.05;;;8.80;99.90;;;;;;5073423;28;20045;-76
2021/12/29 11:00:15;;;;;;;21.38;12.70;;;8.80;99.90;;;;;;5072506;28;20065;-75
2021/12/29 11:02:42;;;;;;;22.40;12.57;;;8.80;99.90;;;;;;5073495;28;20060;-76
2021/12/29 11:05:10;;;;;;;18.60;11.95;;;8.80;99.90;;;;;;5072920;28;20136;-71
2021/12/29 11:07:37;;;;;;;19.08;11.63;;;8.80;99.90;;;;;;5073229;28;20094;-76
2021/12/29 11:10:16;;;;;;;22.35;12.43;;;8.80;99.90;;;;;;5091299;28;20119;-76
2021/12/29 11:12:54;;;;;;;21.70;12.07;;;8.80;99.90;;;;;;5093436;28;20461;-76
2021/12/29 11:15:28;;;;;;;24.80;12.77;;;8.90;99.90;;;;;;5093002;28;20048;-76
2021/12/29 11:17:56;;;;;;;20.90;12.40;;;8.80;99.90;;;;;;5093589;28;20050;-76
2021/12/29 11:20:25;;;;;;;20.33;12.30;;;8.80;99.90;;;;;;5092862;28;20056;-75
2021/12/29 11:23:02;;;;;;;23.10;13.38;;;8.90;99.90;;;;;;5093243;28;20102;-75
2021/12/29 11:25:31;;;;;;;20.52;13.00;;;8.90;99.90;;;;;;5092210;28;20083;-76
2021/12/29 11:27:56;;;;;;;25.50;12.55;;;8.90;99.90;;;;;;5092726;28;20558;-76
2021/12/29 11:30:22;;;;;;;24.23;12.63;;;9.00;99.90;;;;;;5093045;28;20044;-76
2021/12/29 11:32:49;;;;;;;27.65;13.02;;;9.00;99.90;;;;;;5093220;28;20477;-76
2021/12/29 11:35:20;;;;;;;23.08;12.55;;;9.00;99.90;;;;;;5092689;28;20097;-75
2021/12/29 11:37:55;;;;;;;21.02;12.80;;;9.00;99.90;;;;;;5093216;28;20044;-76
2021/12/29 11:40:30;;;;;;;21.30;12.45;;;9.00;99.90;;;;;;5092661;28;20073;-76
2021/12/29 11:42:56;;;;;;;29.15;12.93;;;9.10;99.90;;;;;;5092997;28;20044;-76
2021/12/29 11:45:23;;;;;;;21.08;12.88;;;9.10;99.90;;;;;;5092539;28;20040;-76
2021/12/29 11:47:51;;;;;;;23.77;12.75;;;9.10;99.90;;;;;;5092930;28;20048;-76
2021/12/29 11:50:23;;;;;;;29.70;12.75;;;9.10;99.90;;;;;;5092467;28;20044;-75
2021/12/29 11:53:00;;;;;;;20.98;13.05;;;9.10;99.90;;;;;;5093025;28;20185;-76
2021/12/29 11:55:32;;;;;;;19.88;12.73;;;9.10;99.90;;;;;;5092318;28;20062;-76
2021/12/29 11:58:14;;;;;;;25.02;13.63;;;9.00;99.90;;;;;;5092880;28;20048;-76
2021/12/29 12:00:42;;;;;;;26.85;13.45;;;9.10;99.90;;;;;;5092912;28;20059;-76
2021/12/29 12:03:13;;;;;;;23.30;13.13;;;9.10;99.90;;;;;;5093114;28;20052;-76
2021/12/29 12:05:42;;;;;;;25.98;13.45;;;9.10;99.90;;;;;;5092314;28;20036;-76
2021/12/29 12:08:14;;;;;;;23.92;13.80;;;9.10;99.90;;;;;;5092834;28;20080;-76
2021/12/29 12:10:41;;;;;;;26.90;14.00;;;9.00;99.90;;;;;;5092064;28;20051;-76
2021/12/29 12:13:29;;;;;;;29.33;14.18;;;9.00;99.90;;;;;;5092729;28;20097;-76
2021/12/29 12:16:12;;;;;;;27.63;14.05;;;9.00;99.90;;;;;;5092851;28;20066;-76
2021/12/29 12:18:43;;;;;;;31.83;15.70;;;9.00;99.90;;;;;;5092316;28;20048;-76
2021/12/29 12:21:19;;;;;;;;;;;9.00;99.90;;;;;;5093194;28;20392;-76
2021/12/29 12:23:44;;;;;;;27.67;15.80;;;8.90;99.90;;;;;;5092031;28;19990;-76
2021/12/29 12:26:11;;;;;;;28.38;15.93;;;8.90;99.90;;;;;;5092214;28;20490;-76
2021/12/29 12:28:49;;;;;;;31.63;17.30;;;8.90;99.90;;;;;;5092148;28;20040;-76
2021/12/29 12:31:29;;;;;;;30.67;16.33;;;8.90;99.90;;;;;;5092543;28;20232;-76
2021/12/29 12:34:08;;;;;;;28.58;16.40;;;8.90;99.90;;;;;;5092649;28;20052;-76
2021/12/29 12:36:34;;;;;;;30.17;16.80;;;8.90;99.90;;;;;;5092262;28;20064;-76
2021/12/29 12:39:27;;;;;;;29.33;16.90;;;8.90;99.90;;;;;;5095731;28;20047;-76
2021/12/29 12:41:58;;;;;;;29.17;16.58;;;8.90;99.90;;;;;;5094005;28;20052;-76
2021/12/29 12:44:35;;;;;;;29.15;17.35;;;8.90;99.90;;;;;;5095882;28;20044;-76
2021/12/29 12:47:11;;;;;;;30.85;19.27;;;8.90;99.90;;;;;;5096252;28;20040;-76
2021/12/29 12:49:52;;;;;;;31.15;18.40;;;8.90;99.90;;;;;;5095741;28;20086;-76